Tupelo, MS

12:55 PM CDT on August 24, 2016 (GMT -0500)
Tupelo Regional | | Change Station

Elev 361 ft 34.26 °N, 88.77 °W | Updated 2 minutes ago

Mostly Cloudy
Mostly Cloudy
91 °F
Feels Like 98 °F
N
6
Wind Variable Wind from SSW

Today
High -- | Low -- °F
--% Chance of Precip.
Yesterday
High -- | Low -- °F
Precip. -- in
Pressure 30.16 in
Visibility 10.0 miles
Clouds Scattered Clouds 4600 ft
Mostly Cloudy 7500 ft
Heat Index 98 °F
Dew Point 71 °F
Humidity 52%
Rainfall 0.00 in
Snow Depth Not available.
6:23 AM 7:30 PM
Waning Gibbous, 55% visible
METAR KTUP 241753Z 21005KT 10SM SCT046 BKN075 33/22 A3017 RMK AO2 SLP212 T03280217 10339 20239 58012 $
Pressure 30.16 in
Visibility 10.0 miles
Clouds Scattered Clouds 4600 ft
Mostly Cloudy 7500 ft
Heat Index 98 °F
Dew Point 71 °F
Humidity 52%
Rainfall 0.00 in
Snow Depth Not available.
6:23 AM 7:30 PM
Waning Gibbous, 55% visible
METAR KTUP 241753Z 21005KT 10SM SCT046 BKN075 33/22 A3017 RMK AO2 SLP212 T03280217 10339 20239 58012 $

10-Day Weather Forecast

Almanac

Astronomy

Aug. 24, 2016 Rise Set
Actual Time
Civil Twilight
Nautical Twilight
Astronomical Twilight
Moon
Length of Visible Light
Length of Day
Tomorrow will be .
, % of the Moon is Illuminated

Today's Extremes

State Highs State Lows

Community

WunderPhotos

Upload Photos

1,934,661 photos uploaded!

WunderBlog® & News

Nearby

Air Quality

  Air Quality AQ Index Pollutant
Not available.

Snow Depth

Station Depth Elevation

Earthquake Activity

City Distance Mag. Time & Date
Minimum magnitude displayed is 2.5.

Coastal Water Temperatures

Place Temperature

Stations

Nearby Weather Stations

Station Location Temp. Windchill Dew Point Humidity Wind Precip. Elev Updated Type
                   

Watches & Warnings

There are currently no watches in effect.